Time;durP1;ratioP1;P1;durP2;ratioP2;P2;SDS_P1;SDS_P2;PMS_P1;PMS_P2;Temp;Humidity;BMP_temperature;BMP_pressure;BME280_temperature;BME280_humidity;BME280_pressure;Samples;Min_cycle;Max_cycle;Signal;HPM_P1;HPM_P2
2022/03/10 00:00:49;;;;;;;17.77;8.17;;;;;;;1.01;69.89;102068.59;6025521;28;20697;-72
2022/03/10 00:03:44;;;;;;;20.33;8.07;;;;;;;0.99;70.29;102064.34;6026480;28;20026;-70
2022/03/10 00:06:40;;;;;;;15.63;6.90;;;;;;;1.27;70.06;102064.25;6025282;28;20034;-71
2022/03/10 00:09:35;;;;;;;14.73;5.60;;;;;;;1.44;68.55;102072.34;6024609;28;20374;-70
2022/03/10 00:12:30;;;;;;;18.73;6.07;;;;;;;1.59;67.39;102063.94;6025027;28;20034;-71
2022/03/10 00:15:26;;;;;;;15.33;6.40;;;;;;;1.72;67.16;102065.19;6027092;28;20030;-70
2022/03/10 00:18:21;;;;;;;10.55;5.55;;;;;;;1.69;66.81;102075.75;6026687;28;20029;-71
2022/03/10 00:21:16;;;;;;;15.10;6.70;;;;;;;1.73;65.99;102078.22;6024603;28;20109;-72
2022/03/10 00:24:12;;;;;;;15.30;5.63;;;;;;;1.76;66.22;102078.13;6025875;28;20036;-70
2022/03/10 00:27:07;;;;;;;16.85;6.63;;;;;;;1.78;65.86;102080.66;6025768;28;20030;-71
2022/03/10 00:30:04;;;;;;;13.40;6.10;;;;;;;1.80;66.63;102076.22;6025503;28;20069;-71
2022/03/10 00:32:59;;;;;;;13.23;5.70;;;;;;;1.84;65.54;102085.69;6026073;28;20030;-69
2022/03/10 00:35:54;;;;;;;10.80;5.40;;;;;;;1.91;65.50;102076.69;6025019;28;20125;-70
2022/03/10 00:38:50;;;;;;;15.33;5.77;;;;;;;1.87;64.99;102072.50;6025482;28;20022;-70
2022/03/10 00:41:45;;;;;;;13.32;5.18;;;;;;;1.98;64.64;102070.31;6024829;28;20286;-71
2022/03/10 00:44:41;;;;;;;15.20;5.97;;;;;;;2.03;64.84;102073.63;6025359;28;20133;-72
2022/03/10 00:47:37;;;;;;;16.23;6.20;;;;;;;2.06;64.17;102081.34;6025672;28;20273;-71
2022/03/10 00:50:32;;;;;;;13.35;6.30;;;;;;;1.99;64.21;102077.25;6024697;28;20486;-72
2022/03/10 00:53:27;;;;;;;15.55;5.72;;;;;;;1.96;64.34;102074.75;6025181;28;20026;-71
2022/03/10 00:56:23;;;;;;;17.67;6.70;;;;;;;2.06;64.20;102089.19;6024113;28;20038;-70
2022/03/10 00:59:18;;;;;;;14.33;6.13;;;;;;;1.99;64.95;102090.31;6029165;28;20033;-71
2022/03/10 01:02:13;;;;;;;13.13;5.77;;;;;;;1.53;65.76;102100.75;6031188;28;20457;-71
2022/03/10 01:05:09;;;;;;;13.67;5.87;;;;;;;1.25;66.71;102107.88;6025583;28;20097;-69
2022/03/10 01:08:04;;;;;;;16.17;6.60;;;;;;;0.98;67.62;102101.81;6025296;28;20030;-71
2022/03/10 01:11:00;;;;;;;17.07;5.97;;;;;;;0.56;69.16;102102.31;6023531;28;20034;-72
2022/03/10 01:13:55;;;;;;;17.83;6.70;;;;;;;0.54;70.57;102105.88;6024912;28;20433;-72
2022/03/10 01:16:50;;;;;;;16.65;6.75;;;;;;;0.68;71.80;102115.88;6025270;28;20037;-72
2022/03/10 01:19:47;;;;;;;13.93;5.83;;;;;;;0.78;71.59;102115.53;6025750;28;20040;-72
2022/03/10 01:22:42;;;;;;;19.10;6.70;;;;;;;0.76;70.94;102112.09;6020692;28;20045;-73
2022/03/10 01:25:38;;;;;;;19.67;6.47;;;;;;;0.53;71.09;102120.66;6025519;28;20462;-71
2022/03/10 01:28:33;;;;;;;12.55;5.97;;;;;;;0.56;70.50;102115.34;6045418;28;20285;-72
2022/03/10 01:31:29;;;;;;;16.30;6.07;;;;;;;0.55;70.67;102112.78;6028677;28;20050;-72
2022/03/10 01:34:24;;;;;;;16.30;6.67;;;;;;;0.57;70.65;102111.81;6029845;28;20034;-72
2022/03/10 01:37:19;;;;;;;14.87;6.60;;;;;;;0.78;70.49;102115.53;6029111;28;20593;-71
2022/03/10 01:40:17;;;;;;;17.55;6.75;;;;;;;0.82;69.54;102117.13;6028130;28;20462;-72
2022/03/10 01:43:12;;;;;;;17.67;6.50;;;;;;;0.84;69.60;102109.25;6029258;28;20026;-70
2022/03/10 01:46:07;;;;;;;12.07;5.87;;;;;;;0.83;69.32;102105.78;6029646;28;20031;-71
2022/03/10 01:49:04;;;;;;;20.27;6.60;;;;;;;0.93;70.02;102119.38;6027483;28;20026;-70
2022/03/10 01:52:01;;;;;;;16.27;6.70;;;;;;;0.86;71.03;102115.25;6029187;28;20117;-72
2022/03/10 01:54:57;;;;;;;15.38;5.82;;;;;;;0.70;71.39;102120.13;6028549;28;20062;-70
2022/03/10 01:57:52;;;;;;;17.25;6.57;;;;;;;0.69;72.20;102114.94;6028275;28;20030;-71
2022/03/10 02:00:49;;;;;;;15.80;6.90;;;;;;;0.60;72.75;102119.56;6027951;28;20604;-71
2022/03/10 02:03:44;;;;;;;14.45;5.38;;;;;;;0.52;72.21;102108.50;6027625;28;20524;-72
2022/03/10 02:06:40;;;;;;;16.15;5.63;;;;;;;0.47;71.62;102117.38;6028712;28;20034;-71
2022/03/10 02:12:51;;;;;;;15.75;5.85;;;;;;;0.38;71.67;102107.25;6028503;28;20321;-70
2022/03/10 02:19:00;;;;;;;15.52;5.70;;;;;;;0.43;71.38;102092.28;6028479;28;20030;-71
2022/03/10 02:21:57;;;;;;;16.95;7.07;;;;;;;0.42;71.03;102098.41;6021162;28;20031;-71
2022/03/10 02:24:53;;;;;;;21.10;6.15;;;;;;;0.37;71.11;102097.69;6034679;28;20105;-70
2022/03/10 02:27:50;;;;;;;13.27;6.65;;;;;;;0.36;70.96;102101.19;6028309;28;20041;-70
2022/03/10 02:30:46;;;;;;;12.90;5.03;;;;;;;0.40;70.65;102082.81;6027330;28;21614;-72
2022/03/10 02:33:41;;;;;;;16.93;6.47;;;;;;;0.47;71.38;102086.06;6028785;28;20038;-71
2022/03/10 02:36:37;;;;;;;15.85;6.28;;;;;;;0.52;71.02;102082.41;6027386;28;20035;-71
2022/03/10 02:39:32;;;;;;;14.77;6.30;;;;;;;0.48;72.89;102075.59;6027310;28;20492;-70
2022/03/10 02:42:30;;;;;;;17.03;7.10;;;;;;;0.52;73.22;102089.38;6027980;28;20037;-71
2022/03/10 02:45:27;;;;;;;18.13;7.32;;;;;;;0.32;73.54;102084.81;6027653;28;20493;-72
2022/03/10 02:48:22;;;;;;;17.65;6.75;;;;;;;0.22;74.45;102083.34;6021724;28;20102;-71
2022/03/10 02:51:18;;;;;;;17.52;6.93;;;;;;;0.21;74.56;102083.41;6024902;28;20026;-72
2022/03/10 02:54:13;;;;;;;16.80;5.72;;;;;;;0.04;73.58;102083.06;6027868;28;20144;-73
2022/03/10 02:57:09;;;;;;;11.88;6.15;;;;;;;0.00;73.37;102085.75;6028135;28;20537;-71
2022/03/10 03:00:06;;;;;;;16.30;6.32;;;;;;;-0.18;73.96;102094.13;6025871;28;20035;-72
2022/03/10 03:03:01;;;;;;;16.33;6.50;;;;;;;-0.06;73.17;102083.34;6027999;28;20462;-72
2022/03/10 03:05:56;;;;;;;15.63;6.50;;;;;;;-0.10;73.07;102079.13;6027224;28;20041;-72
2022/03/10 03:08:52;;;;;;;19.57;6.67;;;;;;;-0.03;74.30;102083.22;6027794;28;20049;-69
2022/03/10 03:11:47;;;;;;;17.43;6.83;;;;;;;-0.04;75.26;102091.97;6027120;28;20034;-72
2022/03/10 03:14:42;;;;;;;16.42;7.05;;;;;;;-0.18;75.30;102088.91;6027150;28;20500;-71
2022/03/10 03:17:38;;;;;;;16.90;6.40;;;;;;;-0.29;75.51;102098.78;6027376;28;20041;-72
2022/03/10 03:20:33;;;;;;;18.73;6.37;;;;;;;-0.40;74.89;102098.22;6026553;28;20405;-70
2022/03/10 03:23:28;;;;;;;19.10;7.83;;;;;;;-0.50;74.91;102099.38;6021245;28;20042;-70
2022/03/10 03:26:24;;;;;;;20.43;7.63;;;;;;;-0.48;74.95;102094.97;6026871;28;20684;-71
2022/03/10 03:29:19;;;;;;;21.77;7.87;;;;;;;-0.45;74.83;102104.47;6027304;28;20363;-70
2022/03/10 03:32:14;;;;;;;23.73;8.13;;;;;;;-0.43;74.77;102103.50;6025733;28;20034;-72
2022/03/10 03:35:10;;;;;;;19.90;7.00;;;;;;;-0.43;74.96;102100.06;6026349;28;20113;-70
2022/03/10 03:38:05;;;;;;;21.13;7.05;;;;;;;-0.47;74.87;102099.31;6027084;28;20799;-70
2022/03/10 03:41:00;;;;;;;18.23;7.13;;;;;;;-0.50;74.64;102095.91;6025798;28;20034;-69
2022/03/10 03:43:56;;;;;;;17.80;7.60;;;;;;;-0.44;74.79;102094.00;6026378;28;20500;-71
2022/03/10 03:46:51;;;;;;;16.00;7.03;;;;;;;-0.31;74.46;102102.34;6026433;28;20386;-72
2022/03/10 03:49:46;;;;;;;16.40;6.50;;;;;;;-0.20;74.34;102100.28;6026540;28;20105;-70
2022/03/10 03:52:42;;;;;;;12.50;6.00;;;;;;;-0.22;74.14;102102.91;6025650;28;20046;-72
2022/03/10 03:55:38;;;;;;;15.83;6.87;;;;;;;-0.23;74.00;102111.66;6026337;28;20037;-70
2022/03/10 03:58:35;;;;;;;24.90;7.72;;;;;;;-0.15;74.04;102104.47;6026835;28;20030;-69
2022/03/10 04:01:30;;;;;;;20.15;6.95;;;;;;;-0.31;73.48;102107.53;6035151;28;20084;-70
2022/03/10 04:04:26;;;;;;;20.15;7.78;;;;;;;-0.27;73.53;102110.00;6025409;28;20019;-72
2022/03/10 04:07:22;;;;;;;18.53;6.73;;;;;;;-0.33;74.25;102115.41;6026417;28;20533;-71
2022/03/10 04:10:18;;;;;;;19.55;6.95;;;;;;;-0.23;74.72;102127.28;6025330;28;20069;-69
2022/03/10 04:13:13;;;;;;;16.17;7.07;;;;;;;-0.31;74.63;102121.44;6026428;28;20477;-70
2022/03/10 04:16:08;;;;;;;18.93;7.17;;;;;;;-0.47;74.03;102122.75;6029265;28;20048;-71
2022/03/10 04:19:04;;;;;;;17.15;6.88;;;;;;;-0.50;74.35;102127.19;6025936;28;20046;-70
2022/03/10 04:22:00;;;;;;;17.60;7.03;;;;;;;-0.47;74.47;102121.88;6025133;28;20023;-70
2022/03/10 04:24:55;;;;;;;19.55;7.40;;;;;;;-0.50;74.42;102122.81;6025597;28;20022;-69
2022/03/10 04:27:53;;;;;;;19.65;7.50;;;;;;;-0.54;74.61;102131.59;6017482;28;20034;-69
2022/03/10 04:30:49;;;;;;;17.02;6.13;;;;;;;-0.55;74.50;102134.25;6022895;28;20381;-71
2022/03/10 04:33:44;;;;;;;19.20;6.68;;;;;;;-0.47;74.93;102130.56;6026343;28;20066;-70
2022/03/10 04:36:40;;;;;;;14.80;7.00;;;;;;;-0.62;74.73;102136.16;6026031;28;20109;-69
2022/03/10 04:39:35;;;;;;;18.87;6.40;;;;;;;-0.74;74.42;102126.09;6025685;28;20080;-71
2022/03/10 04:42:30;;;;;;;18.47;6.77;;;;;;;-0.61;75.57;102130.94;6018277;28;20047;-71
2022/03/10 04:45:26;;;;;;;19.07;6.97;;;;;;;-0.53;74.75;102128.13;6025415;28;20061;-69
2022/03/10 04:48:21;;;;;;;20.77;7.03;;;;;;;-0.65;75.14;102134.50;6024784;28;20042;-70
2022/03/10 04:51:16;;;;;;;23.10;8.10;;;;;;;-0.46;76.06;102145.28;6024726;28;20316;-70
2022/03/10 04:54:12;;;;;;;19.17;7.67;;;;;;;-0.66;76.67;102144.97;6025286;28;20450;-71
2022/03/10 04:57:07;;;;;;;19.77;7.07;;;;;;;-0.61;77.54;102145.69;6025905;28;20026;-70
2022/03/10 05:00:08;;;;;;;17.40;6.80;;;;;;;-0.71;76.82;102139.03;6024485;28;20032;-70
2022/03/10 05:03:03;;;;;;;15.10;5.90;;;;;;;-0.83;76.74;102149.75;6030552;28;20050;-70
2022/03/10 05:05:59;;;;;;;17.10;6.97;;;;;;;-0.94;76.60;102156.97;6030671;28;20381;-69
2022/03/10 05:08:55;;;;;;;20.10;7.72;;;;;;;-1.03;76.18;102152.81;6028692;28;20393;-69
2022/03/10 05:11:50;;;;;;;19.30;8.17;;;;;;;-1.20;76.67;102148.03;6029582;28;20104;-69
2022/03/10 05:14:46;;;;;;;20.20;8.30;;;;;;;-1.20;76.84;102150.63;6026447;28;20038;-70
2022/03/10 05:17:41;;;;;;;15.77;7.13;;;;;;;-1.24;77.38;102154.22;6030419;28;20096;-69
2022/03/10 05:20:42;;;;;;;17.83;6.33;;;;;;;-1.13;77.44;102160.91;6024198;28;20042;-70
2022/03/10 05:23:37;;;;;;;16.83;7.38;;;;;;;-1.15;77.41;102152.28;6024094;28;20128;-69
2022/03/10 05:26:33;;;;;;;14.37;6.50;;;;;;;-1.09;77.23;102157.34;6035889;28;20470;-69
2022/03/10 05:29:28;;;;;;;17.57;6.97;;;;;;;-0.97;76.92;102157.03;6029612;28;20045;-68
2022/03/10 05:32:23;;;;;;;18.20;7.33;;;;;;;-0.95;77.36;102161.31;6029486;28;20026;-69
2022/03/10 05:35:19;;;;;;;24.43;9.00;;;;;;;-0.88;78.13;102164.63;6029486;28;20273;-69
2022/03/10 05:38:14;;;;;;;18.73;7.50;;;;;;;-1.11;78.40;102172.97;6029411;28;20076;-69
2022/03/10 05:41:09;;;;;;;21.50;7.93;;;;;;;-1.07;78.85;102176.38;6028671;28;20084;-71
2022/03/10 05:44:05;;;;;;;19.63;7.68;;;;;;;-1.07;78.95;102171.16;6028996;28;20046;-68
2022/03/10 05:47:00;;;;;;;19.97;6.73;;;;;;;-1.00;78.35;102177.91;6027397;28;20663;-68
2022/03/10 05:49:56;;;;;;;16.27;6.70;;;;;;;-1.14;78.47;102180.03;6028720;28;20277;-69
2022/03/10 05:52:51;;;;;;;17.90;7.82;;;;;;;-1.06;78.53;102172.88;6029247;28;20402;-68
2022/03/10 05:55:47;;;;;;;18.88;6.68;;;;;;;-0.99;78.69;102174.44;6028988;28;20066;-68
2022/03/10 05:58:42;;;;;;;17.37;7.27;;;;;;;-1.09;77.63;102178.16;6029499;28;20505;-68
2022/03/10 06:01:37;;;;;;;18.20;7.77;;;;;;;-1.11;78.56;102186.00;6028388;28;20292;-68
2022/03/10 06:04:32;;;;;;;22.17;7.77;;;;;;;-1.54;78.73;102193.91;6029116;28;20034;-68
2022/03/10 06:07:31;;;;;;;25.73;8.37;;;;;;;-1.83;79.76;102188.47;6024414;28;20031;-68
2022/03/10 06:10:26;;;;;;;18.10;7.07;;;;;;;-1.63;80.23;102207.09;6022176;28;20037;-67
2022/03/10 06:13:22;;;;;;;15.30;6.70;;;;;;;-1.37;79.87;102199.59;6026616;28;20030;-68
2022/03/10 06:16:17;;;;;;;17.97;6.80;;;;;;;-1.12;78.75;102197.31;6028806;28;20052;-70
2022/03/10 06:19:13;;;;;;;16.60;7.57;;;;;;;-1.43;78.38;102209.28;6025867;28;20029;-70
2022/03/10 06:22:09;;;;;;;20.48;8.27;;;;;;;-1.72;78.95;102196.91;6026334;28;20058;-70
2022/03/10 06:25:05;;;;;;;19.15;8.50;;;;;;;-1.54;79.06;102193.91;6028145;28;20133;-70
2022/03/10 06:28:01;;;;;;;22.02;7.10;;;;;;;-1.35;79.02;102195.22;6028413;28;20026;-70
2022/03/10 06:30:57;;;;;;;18.98;6.88;;;;;;;-0.82;78.72;102188.78;6027003;28;20032;-70
2022/03/10 06:33:52;;;;;;;18.27;6.88;;;;;;;-0.17;76.94;102194.88;6028912;28;20018;-70
2022/03/10 06:36:48;;;;;;;17.30;6.37;;;;;;;0.30;75.63;102200.53;6028755;28;20036;-71
2022/03/10 06:39:43;;;;;;;16.17;6.25;;;;;;;0.25;74.80;102200.63;6028818;28;20616;-71
2022/03/10 06:42:39;;;;;;;17.37;5.33;;;;;;;0.49;73.81;102201.69;6027682;28;20035;-71
2022/03/10 06:45:34;;;;;;;18.63;7.47;;;;;;;0.49;72.29;102204.31;6028460;28;20042;-70
2022/03/10 06:48:29;;;;;;;17.75;6.90;;;;;;;0.81;72.24;102195.50;6028352;28;20033;-71
2022/03/10 06:51:25;;;;;;;17.17;7.10;;;;;;;1.08;70.41;102200.69;6027551;28;20030;-71
2022/03/10 06:54:20;;;;;;;20.33;7.30;;;;;;;1.13;69.21;102190.97;6027606;28;20041;-70
2022/03/10 06:57:15;;;;;;;20.17;8.05;;;;;;;1.40;68.96;102191.81;6027522;28;20381;-71
2022/03/10 07:00:11;;;;;;;17.05;7.00;;;;;;;1.86;67.79;102198.91;6027927;28;20114;-71
2022/03/10 07:03:06;;;;;;;19.00;7.60;;;;;;;2.07;67.08;102198.13;6038714;28;20072;-69
2022/03/10 07:06:02;;;;;;;20.70;6.50;;;;;;;2.48;65.24;102208.84;6028219;28;20031;-69
2022/03/10 07:08:58;;;;;;;16.33;6.95;;;;;;;2.47;65.36;102207.16;6027340;28;20026;-70
2022/03/10 07:11:54;;;;;;;14.77;6.55;;;;;;;2.78;64.88;102199.81;6027022;28;20034;-69
2022/03/10 07:14:49;;;;;;;18.17;8.02;;;;;;;2.77;64.72;102205.97;6027189;28;20445;-70
2022/03/10 07:17:44;;;;;;;18.53;7.77;;;;;;;2.82;64.09;102209.28;6027046;28;20022;-70
2022/03/10 07:20:40;;;;;;;19.77;7.67;;;;;;;2.96;64.07;102217.44;6026683;28;20034;-71
2022/03/10 07:23:35;;;;;;;18.67;6.87;;;;;;;3.09;63.84;102221.28;6027502;28;20046;-69
2022/03/10 07:26:30;;;;;;;14.93;6.50;;;;;;;3.22;62.71;102224.25;6026160;28;20417;-71
2022/03/10 07:29:26;;;;;;;14.75;6.25;;;;;;;3.36;62.16;102214.91;6027166;28;20038;-69
2022/03/10 07:32:24;;;;;;;17.10;7.13;;;;;;;3.48;62.49;102227.50;6026726;28;20022;-70
2022/03/10 07:35:19;;;;;;;13.75;6.28;;;;;;;3.57;62.65;102229.75;6027039;28;20033;-69
2022/03/10 07:38:14;;;;;;;16.47;6.97;;;;;;;3.84;61.58;102232.13;6027419;28;20030;-70
2022/03/10 07:41:10;;;;;;;16.27;7.17;;;;;;;3.97;62.09;102235.91;6026051;28;20061;-70
2022/03/10 07:44:05;;;;;;;15.77;6.37;;;;;;;4.17;61.01;102238.53;6026813;28;20105;-70
2022/03/10 07:47:00;;;;;;;14.97;6.87;;;;;;;4.11;61.28;102244.91;6026269;28;20303;-70
2022/03/10 07:49:57;;;;;;;14.67;6.77;;;;;;;4.52;60.82;102237.81;6027292;28;20327;-70
2022/03/10 07:52:52;;;;;;;14.48;7.10;;;;;;;4.63;59.80;102235.53;6026000;28;20301;-69
2022/03/10 07:55:50;;;;;;;13.77;6.10;;;;;;;4.85;59.75;102234.53;6026658;28;20433;-72
2022/03/10 07:58:45;;;;;;;16.58;7.07;;;;;;;4.87;60.13;102230.06;6026134;28;20513;-68
2022/03/10 08:01:41;;;;;;;12.77;5.72;;;;;;;4.89;59.01;102233.47;6024996;28;20041;-69
2022/03/10 08:04:36;;;;;;;18.45;6.35;;;;;;;5.22;58.79;102242.38;6025115;28;20034;-69
2022/03/10 08:07:32;;;;;;;15.87;7.00;;;;;;;5.25;58.30;102236.97;6026283;28;20034;-68
2022/03/10 08:10:28;;;;;;;13.57;6.45;;;;;;;5.67;57.50;102239.25;6025290;28;20049;-69
2022/03/10 08:13:26;;;;;;;15.50;6.70;;;;;;;5.73;57.09;102231.91;6026304;28;20026;-71
2022/03/10 08:16:22;;;;;;;15.43;6.88;;;;;;;5.68;57.14;102231.28;6019196;28;20034;-70
2022/03/10 08:19:17;;;;;;;13.77;6.95;;;;;;;5.67;56.71;102228.72;6025769;28;20041;-70
2022/03/10 08:22:15;;;;;;;15.48;6.70;;;;;;;5.84;56.93;102232.19;6018904;28;20038;-71
2022/03/10 08:25:10;;;;;;;12.07;5.82;;;;;;;5.99;55.95;102227.97;6029173;28;20067;-72
2022/03/10 08:28:08;;;;;;;17.67;7.13;;;;;;;6.29;55.51;102222.88;6030576;28;20041;-70
2022/03/10 08:31:04;;;;;;;15.45;6.82;;;;;;;6.46;54.61;102225.47;6025244;28;20257;-70
2022/03/10 08:33:59;;;;;;;15.15;5.97;;;;;;;6.57;54.89;102229.22;6020468;28;20023;-72
2022/03/10 08:36:54;;;;;;;17.53;6.77;;;;;;;6.62;54.23;102228.13;6019044;28;20034;-69
2022/03/10 08:39:50;;;;;;;15.43;7.20;;;;;;;6.60;53.88;102220.31;6031373;28;20030;-72
2022/03/10 08:42:47;;;;;;;16.20;6.93;;;;;;;6.58;54.83;102219.50;6029581;28;20084;-70
2022/03/10 08:45:42;;;;;;;14.55;7.00;;;;;;;6.74;54.61;102219.56;6033592;28;20022;-70
2022/03/10 08:48:39;;;;;;;11.50;6.13;;;;;;;6.96;54.41;102207.72;6022036;28;20403;-71
2022/03/10 08:51:34;;;;;;;15.98;6.05;;;;;;;7.04;53.41;102210.75;6021313;28;20041;-72
2022/03/10 08:54:29;;;;;;;15.85;6.25;;;;;;;7.51;53.28;102212.47;6025814;28;20485;-69
2022/03/10 08:57:25;;;;;;;14.87;7.00;;;;;;;7.81;52.65;102210.66;6025360;28;20385;-70
2022/03/10 09:00:20;;;;;;;15.90;6.97;;;;;;;7.78;52.98;102198.50;6024943;28;20038;-69
2022/03/10 09:03:15;;;;;;;13.67;7.07;;;;;;;7.83;52.78;102203.47;6025095;28;20022;-71
2022/03/10 09:06:12;;;;;;;15.33;7.57;;;;;;;7.90;52.65;102202.19;6025328;28;20048;-71
2022/03/10 09:09:07;;;;;;;13.85;5.88;;;;;;;8.20;51.96;102197.69;6025579;28;20026;-71
2022/03/10 09:12:03;;;;;;;18.02;6.45;;;;;;;8.36;51.47;102190.56;6024646;28;20489;-70
2022/03/10 09:14:58;;;;;;;14.50;6.97;;;;;;;8.67;51.35;102185.97;6025688;28;20027;-70
2022/03/10 09:17:54;;;;;;;13.35;6.43;;;;;;;9.04;50.18;102192.38;6025131;28;20143;-69
2022/03/10 09:20:49;;;;;;;15.10;5.97;;;;;;;9.38;48.75;102184.75;6024437;28;20084;-71
2022/03/10 09:23:45;;;;;;;17.70;7.33;;;;;;;9.22;48.69;102185.88;6019045;28;20301;-69
2022/03/10 09:26:40;;;;;;;16.85;5.47;;;;;;;9.25;49.02;102173.28;6025139;28;20277;-69
2022/03/10 09:29:36;;;;;;;13.38;6.00;;;;;;;9.49;48.34;102171.66;6021182;28;20063;-68
2022/03/10 09:32:36;;;;;;;13.52;6.47;;;;;;;9.57;48.11;102152.59;6024661;28;20073;-71
2022/03/10 09:35:31;;;;;;;13.60;6.90;;;;;;;9.82;47.26;102163.22;6025133;28;20018;-69
2022/03/10 09:38:26;;;;;;;14.10;5.47;;;;;;;10.10;47.43;102162.16;6035109;28;20060;-72
2022/03/10 09:41:22;;;;;;;12.03;5.87;;;;;;;9.92;45.95;102153.66;6027313;28;20482;-72
2022/03/10 09:44:19;;;;;;;8.67;5.00;;;;;;;10.03;45.25;102167.03;6023739;28;20033;-73
2022/03/10 09:47:15;;;;;;;12.57;5.30;;;;;;;9.97;45.07;102161.31;6030260;28;20027;-70
2022/03/10 09:50:16;;;;;;;14.55;6.00;;;;;;;9.93;44.92;102155.38;6030235;28;20406;-70
2022/03/10 09:53:12;;;;;;;12.68;5.25;;;;;;;10.11;45.12;102154.09;6023810;28;20030;-71
2022/03/10 09:56:07;;;;;;;11.52;5.25;;;;;;;10.16;44.35;102167.06;6029646;28;20496;-71
2022/03/10 09:59:08;;;;;;;12.57;5.57;;;;;;;10.14;45.06;102159.22;6029427;28;20038;-69
2022/03/10 10:02:04;;;;;;;9.65;4.57;;;;;;;10.22;44.88;102157.84;6029427;28;20540;-72
2022/03/10 10:05:00;;;;;;;12.32;5.68;;;;;;;10.36;44.00;102150.59;6044493;28;20053;-70
2022/03/10 10:08:17;;;;;;;11.53;5.27;;;;;;;10.23;43.67;102146.25;6032584;28;20065;-69
2022/03/10 10:11:16;;;;;;;10.60;5.20;;;;;;;10.17;43.57;102158.16;6028204;28;20096;-70
2022/03/10 10:14:11;;;;;;;11.55;5.30;;;;;;;10.48;43.25;102157.69;6029464;28;20029;-70
2022/03/10 10:17:07;;;;;;;10.37;4.80;;;;;;;10.57;42.92;102143.72;6044374;28;20038;-71
2022/03/10 10:20:03;;;;;;;11.27;5.28;;;;;;;10.56;42.88;102152.66;6028553;28;20293;-71
2022/03/10 10:23:17;;;;;;;12.93;5.35;;;;;;;10.63;43.17;102156.56;6023027;28;20386;-71
2022/03/10 10:26:13;;;;;;;14.32;5.32;;;;;;;10.78;42.15;102159.91;6028702;28;20034;-71
2022/03/10 10:29:08;;;;;;;10.05;4.47;;;;;;;10.97;41.95;102162.06;6029043;28;20414;-70
2022/03/10 10:32:04;;;;;;;10.13;5.20;;;;;;;10.90;41.38;102158.19;6028685;28;20041;-69
2022/03/10 10:35:05;;;;;;;13.77;4.95;;;;;;;11.14;41.52;102156.38;6044149;28;20106;-71
2022/03/10 10:38:01;;;;;;;13.70;5.97;;;;;;;11.19;40.68;102151.56;6028759;28;20026;-70
2022/03/10 10:41:21;;;;;;;11.05;5.30;;;;;;;10.95;41.23;102167.47;6027981;28;20049;-72
2022/03/10 10:44:20;;;;;;;11.50;5.57;;;;;;;11.12;41.87;102152.97;6028796;28;20057;-69
2022/03/10 10:47:16;;;;;;;10.13;5.20;;;;;;;11.59;40.59;102152.88;6028958;28;20038;-72
2022/03/10 10:50:11;;;;;;;11.03;6.50;;;;;;;11.38;40.16;102162.50;6027947;28;20022;-71
2022/03/10 10:53:07;;;;;;;11.63;5.85;;;;;;;11.13;40.35;102154.66;6028709;28;20072;-72
2022/03/10 10:56:04;;;;;;;14.75;5.82;;;;;;;10.97;40.87;102157.63;6027290;28;20037;-72
2022/03/10 10:59:01;;;;;;;12.25;4.97;;;;;;;11.12;40.68;102147.66;6027401;28;20536;-68
2022/03/10 11:02:10;;;;;;;12.45;5.15;;;;;;;11.43;41.39;102151.50;6027648;28;20085;-70
2022/03/10 11:05:08;;;;;;;12.13;5.68;;;;;;;11.58;40.41;102148.53;6028230;28;20100;-71
2022/03/10 11:08:04;;;;;;;13.48;6.20;;;;;;;11.04;41.17;102150.03;6028378;28;20097;-71
2022/03/10 11:10:59;;;;;;;12.63;5.30;;;;;;;11.30;41.01;102146.28;6042468;28;20026;-70
2022/03/10 11:13:55;;;;;;;12.30;5.47;;;;;;;11.47;40.48;102140.53;6027942;28;20425;-72
2022/03/10 11:16:50;;;;;;;12.70;5.13;;;;;;;11.56;40.68;102139.84;6028133;28;20504;-72
2022/03/10 11:19:48;;;;;;;11.05;5.38;;;;;;;11.48;40.51;102133.41;6026750;28;20270;-69
2022/03/10 11:22:55;;;;;;;10.38;5.28;;;;;;;11.83;41.13;102144.88;6027163;28;20030;-72
2022/03/10 11:25:55;;;;;;;13.52;5.30;;;;;;;11.70;40.21;102134.34;6042740;28;20351;-70
2022/03/10 11:28:52;;;;;;;;;;;;;;;11.64;39.72;102145.41;6027204;28;20533;-70
2022/03/10 11:31:47;;;;;;;12.35;5.78;;;;;;;11.79;40.10;102138.13;6012039;28;19918;-74
2022/03/10 11:34:47;;;;;;;10.77;6.25;;;;;;;11.53;39.87;102141.88;6027861;28;20121;-72
2022/03/10 11:37:44;;;;;;;10.85;5.43;;;;;;;11.74;40.63;102129.66;6027608;28;20033;-70
2022/03/10 11:40:47;;;;;;;13.38;6.13;;;;;;;12.03;40.13;102124.72;6031892;28;20034;-71
2022/03/10 11:43:54;;;;;;;12.18;4.93;;;;;;;11.64;39.33;102124.16;6037014;28;20030;-70
2022/03/10 11:47:00;;;;;;;13.15;5.43;;;;;;;11.97;39.60;102126.03;6027026;28;20464;-71
2022/03/10 11:49:55;;;;;;;11.40;5.63;;;;;;;12.27;38.84;102118.28;6027360;28;20031;-71
2022/03/10 11:53:05;;;;;;;11.07;4.83;;;;;;;12.09;38.67;102121.56;6026437;28;20026;-71
2022/03/10 11:56:00;;;;;;;11.82;4.43;;;;;;;12.10;38.48;102117.94;6027217;28;20023;-69
2022/03/10 11:58:56;;;;;;;10.43;5.13;;;;;;;12.11;38.43;102117.81;6025541;28;20038;-71
2022/03/10 12:01:53;;;;;;;11.63;5.53;;;;;;;12.14;38.01;102114.06;6025340;28;20030;-71
2022/03/10 12:04:55;;;;;;;11.68;5.43;;;;;;;12.03;37.67;102116.72;6027042;28;20057;-74
2022/03/10 12:07:52;;;;;;;15.32;5.20;;;;;;;12.06;37.43;102120.00;6027251;28;20117;-70
2022/03/10 12:10:47;;;;;;;16.45;6.32;;;;;;;11.99;37.39;102117.91;6040860;28;20505;-70
2022/03/10 12:13:47;;;;;;;11.35;4.95;;;;;;;11.95;37.09;102109.38;6026256;28;20092;-69
2022/03/10 12:16:42;;;;;;;11.38;5.32;;;;;;;11.79;36.76;102100.91;6026890;28;20470;-71
2022/03/10 12:20:14;;;;;;;13.23;5.73;;;;;;;11.86;36.34;102099.44;6026711;28;20033;-69
2022/03/10 12:23:19;;;;;;;11.07;5.40;;;;;;;11.69;36.08;102103.41;6020848;28;20358;-72
2022/03/10 12:26:24;;;;;;;9.77;5.18;;;;;;;11.79;35.10;102101.75;6026025;28;20038;-71
2022/03/10 12:29:20;;;;;;;10.52;4.85;;;;;;;12.07;35.00;102099.56;6026648;28;20035;-72
2022/03/10 12:32:19;;;;;;;10.73;4.88;;;;;;;11.97;35.74;102093.28;6024416;28;20022;-71
2022/03/10 12:35:15;;;;;;;10.20;4.05;;;;;;;11.76;35.28;102091.34;6025355;28;20030;-70
2022/03/10 12:38:10;;;;;;;13.27;5.27;;;;;;;11.84;34.93;102086.28;6026366;28;20377;-69
2022/03/10 12:41:06;;;;;;;8.98;4.50;;;;;;;12.28;33.75;102089.88;6025266;28;20048;-72
2022/03/10 12:44:02;;;;;;;11.13;5.35;;;;;;;12.15;34.75;102083.88;6026481;28;20076;-72
2022/03/10 12:46:59;;;;;;;10.80;4.85;;;;;;;12.34;36.20;102082.25;6026232;28;20033;-71
2022/03/10 12:49:56;;;;;;;10.73;5.70;;;;;;;12.22;36.40;102083.25;6025060;28;20100;-71
2022/03/10 12:52:53;;;;;;;9.23;4.70;;;;;;;12.03;35.60;102069.72;6040310;28;20033;-71
2022/03/10 12:55:55;;;;;;;10.10;3.97;;;;;;;12.21;34.99;102080.69;6026054;28;20470;-72
2022/03/10 12:58:52;;;;;;;8.90;4.32;;;;;;;12.32;35.57;102080.69;6026270;28;20022;-74
2022/03/10 13:01:48;;;;;;;10.18;5.35;;;;;;;12.23;35.35;102073.47;6025256;28;20529;-71
2022/03/10 13:04:50;;;;;;;14.13;5.07;;;;;;;12.20;35.79;102063.06;6026055;28;20057;-71
2022/03/10 13:07:46;;;;;;;11.15;4.88;;;;;;;12.71;35.70;102064.13;6025935;28;20590;-70
2022/03/10 13:10:41;;;;;;;11.45;5.30;;;;;;;12.65;35.21;102061.13;6024762;28;20030;-73
2022/03/10 13:13:37;;;;;;;13.80;5.30;;;;;;;12.52;35.49;102042.66;6027314;28;20532;-73
2022/03/10 13:16:35;;;;;;;10.02;5.28;;;;;;;12.60;35.32;102050.88;6042037;28;20045;-72
2022/03/10 13:19:37;;;;;;;13.77;5.57;;;;;;;12.19;35.51;102056.03;6034805;28;20034;-71
2022/03/10 13:22:32;;;;;;;7.40;4.03;;;;;;;12.33;34.85;102047.78;6027218;28;20446;-72
2022/03/10 13:25:33;;;;;;;9.07;4.40;;;;;;;11.96;35.63;102038.44;6030680;28;20030;-71
2022/03/10 13:28:30;;;;;;;11.93;6.05;;;;;;;12.01;35.62;102044.22;6029841;28;20034;-70
2022/03/10 13:31:29;;;;;;;11.63;5.05;;;;;;;11.95;36.02;102048.22;6029953;28;20423;-71
2022/03/10 13:34:25;;;;;;;12.10;5.32;;;;;;;11.92;36.08;102048.47;6029187;28;20120;-70
2022/03/10 13:37:20;;;;;;;10.93;5.05;;;;;;;11.98;36.09;102036.50;6029303;28;20374;-73
2022/03/10 13:40:17;;;;;;;10.38;4.90;;;;;;;12.21;36.79;102043.47;6028180;28;20439;-70
2022/03/10 13:43:23;;;;;;;11.10;5.57;;;;;;;12.36;35.89;102036.91;6044768;28;20022;-74